sensor_id;sensor_type;location;lat;lon;timestamp;pressure;altitude;pressure_sealevel;temperature;humidity
56582;BME280;42463;52.214;21.238;2023-04-05T00:00:20;100935.27;;;2.29;56.59
56582;BME280;42463;52.214;21.238;2023-04-05T00:02:45;100933.67;;;2.26;56.70
56582;BME280;42463;52.214;21.238;2023-04-05T00:04:49;100929.86;;;2.23;56.63
56582;BME280;42463;52.214;21.238;2023-04-05T00:06:53;100930.60;;;2.20;56.57
56582;BME280;42463;52.214;21.238;2023-04-05T00:08:59;100927.79;;;2.16;56.50
56582;BME280;42463;52.214;21.238;2023-04-05T00:11:04;100924.85;;;2.12;56.85
56582;BME280;42463;52.214;21.238;2023-04-05T00:13:08;100927.04;;;2.11;57.06
56582;BME280;42463;52.214;21.238;2023-04-05T00:15:12;100925.31;;;2.08;56.96
56582;BME280;42463;52.214;21.238;2023-04-05T00:17:17;100923.70;;;2.04;56.94
56582;BME280;42463;52.214;21.238;2023-04-05T00:19:22;100921.80;;;2.00;57.02
56582;BME280;42463;52.214;21.238;2023-04-05T00:21:26;100922.77;;;1.97;57.19
56582;BME280;42463;52.214;21.238;2023-04-05T00:23:30;100921.04;;;1.93;57.17
56582;BME280;42463;52.214;21.238;2023-04-05T00:25:41;100920.36;;;1.94;57.47
56582;BME280;42463;52.214;21.238;2023-04-05T00:27:45;100916.77;;;1.98;57.39
56582;BME280;42463;52.214;21.238;2023-04-05T00:29:49;100912.09;;;1.98;57.40
56582;BME280;42463;52.214;21.238;2023-04-05T00:31:54;100909.38;;;1.95;57.59
56582;BME280;42463;52.214;21.238;2023-04-05T00:33:58;100909.95;;;1.98;57.61
56582;BME280;42463;52.214;21.238;2023-04-05T00:36:12;100905.61;;;2.00;57.60
56582;BME280;42463;52.214;21.238;2023-04-05T00:38:17;100894.14;;;1.97;57.59
56582;BME280;42463;52.214;21.238;2023-04-05T00:40:21;100904.27;;;2.05;57.29
56582;BME280;42463;52.214;21.238;2023-04-05T00:42:25;100901.19;;;2.05;57.52
56582;BME280;42463;52.214;21.238;2023-04-05T00:44:29;100897.02;;;2.04;57.24
56582;BME280;42463;52.214;21.238;2023-04-05T00:46:36;100899.88;;;2.06;57.30
56582;BME280;42463;52.214;21.238;2023-04-05T00:48:40;100900.83;;;2.05;57.35
56582;BME280;42463;52.214;21.238;2023-04-05T00:50:44;100897.83;;;2.04;57.21
56582;BME280;42463;52.214;21.238;2023-04-05T00:52:49;100897.00;;;2.03;57.23
56582;BME280;42463;52.214;21.238;2023-04-05T00:54:54;100891.80;;;1.99;57.21
56582;BME280;42463;52.214;21.238;2023-04-05T00:56:58;100887.61;;;1.95;57.24
56582;BME280;42463;52.214;21.238;2023-04-05T00:59:03;100889.33;;;1.94;57.46
56582;BME280;42463;52.214;21.238;2023-04-05T01:03:44;100889.13;;;1.88;57.46
56582;BME280;42463;52.214;21.238;2023-04-05T01:05:50;100890.73;;;1.89;57.55
56582;BME280;42463;52.214;21.238;2023-04-05T01:08:01;100891.59;;;1.90;57.80
56582;BME280;42463;52.214;21.238;2023-04-05T01:10:09;100888.77;;;1.93;57.81
56582;BME280;42463;52.214;21.238;2023-04-05T01:12:17;100890.27;;;1.97;57.65
56582;BME280;42463;52.214;21.238;2023-04-05T01:14:21;100892.45;;;2.01;57.37
56582;BME280;42463;52.214;21.238;2023-04-05T01:16:25;100889.64;;;2.04;57.32
56582;BME280;42463;52.214;21.238;2023-04-05T01:18:30;100890.64;;;2.04;57.09
56582;BME280;42463;52.214;21.238;2023-04-05T01:20:36;100890.45;;;2.06;57.08
56582;BME280;42463;52.214;21.238;2023-04-05T01:25:13;100890.33;;;2.06;56.86
56582;BME280;42463;52.214;21.238;2023-04-05T01:27:21;100894.29;;;2.06;56.93
56582;BME280;42463;52.214;21.238;2023-04-05T01:29:31;100889.02;;;2.07;56.98
56582;BME280;42463;52.214;21.238;2023-04-05T01:31:43;100889.95;;;2.05;56.83
56582;BME280;42463;52.214;21.238;2023-04-05T01:33:51;100891.23;;;2.02;56.74
56582;BME280;42463;52.214;21.238;2023-04-05T01:36:07;100889.71;;;1.96;56.75
56582;BME280;42463;52.214;21.238;2023-04-05T01:38:16;100888.03;;;1.93;57.09
56582;BME280;42463;52.214;21.238;2023-04-05T01:40:21;100886.42;;;1.93;57.17
56582;BME280;42463;52.214;21.238;2023-04-05T01:42:26;100887.14;;;1.91;57.17
56582;BME280;42463;52.214;21.238;2023-04-05T01:44:30;100886.73;;;1.92;57.11
56582;BME280;42463;52.214;21.238;2023-04-05T01:46:34;100885.61;;;1.91;57.09
56582;BME280;42463;52.214;21.238;2023-04-05T01:48:39;100888.13;;;1.91;57.12
56582;BME280;42463;52.214;21.238;2023-04-05T01:50:44;100889.23;;;1.91;57.16
56582;BME280;42463;52.214;21.238;2023-04-05T01:52:49;100890.17;;;1.90;57.22
56582;BME280;42463;52.214;21.238;2023-04-05T01:54:53;100887.04;;;1.89;57.17
56582;BME280;42463;52.214;21.238;2023-04-05T01:56:57;100884.25;;;1.90;57.19
56582;BME280;42463;52.214;21.238;2023-04-05T01:59:01;100886.38;;;1.89;57.27
56582;BME280;42463;52.214;21.238;2023-04-05T02:01:07;100888.95;;;1.87;57.08
56582;BME280;42463;52.214;21.238;2023-04-05T02:03:11;100885.92;;;1.83;57.02
56582;BME280;42463;52.214;21.238;2023-04-05T02:05:16;100890.13;;;1.77;57.17
56582;BME280;42463;52.214;21.238;2023-04-05T02:07:20;100889.36;;;1.75;57.25
56582;BME280;42463;52.214;21.238;2023-04-05T02:09:24;100887.32;;;1.70;57.31
56582;BME280;42463;52.214;21.238;2023-04-05T02:11:28;100887.98;;;1.61;57.30
56582;BME280;42463;52.214;21.238;2023-04-05T02:13:35;100886.50;;;1.53;57.43
56582;BME280;42463;52.214;21.238;2023-04-05T02:15:39;100891.09;;;1.46;57.62
56582;BME280;42463;52.214;21.238;2023-04-05T02:17:43;100889.20;;;1.41;57.77
56582;BME280;42463;52.214;21.238;2023-04-05T02:19:48;100888.83;;;1.38;58.03
56582;BME280;42463;52.214;21.238;2023-04-05T02:21:54;100886.59;;;1.42;58.20
56582;BME280;42463;52.214;21.238;2023-04-05T02:23:58;100889.32;;;1.46;58.15
56582;BME280;42463;52.214;21.238;2023-04-05T02:26:02;100887.39;;;1.49;57.89
56582;BME280;42463;52.214;21.238;2023-04-05T02:28:07;100888.48;;;1.51;57.92
56582;BME280;42463;52.214;21.238;2023-04-05T02:30:12;100888.88;;;1.53;57.80
56582;BME280;42463;52.214;21.238;2023-04-05T02:32:17;100887.85;;;1.52;57.64
56582;BME280;42463;52.214;21.238;2023-04-05T02:34:22;100890.47;;;1.51;57.76
56582;BME280;42463;52.214;21.238;2023-04-05T02:36:26;100885.56;;;1.50;57.82
56582;BME280;42463;52.214;21.238;2023-04-05T02:38:31;100884.53;;;1.50;57.72
56582;BME280;42463;52.214;21.238;2023-04-05T02:40:36;100881.42;;;1.51;57.81
56582;BME280;42463;52.214;21.238;2023-04-05T02:42:43;100881.44;;;1.52;57.69
56582;BME280;42463;52.214;21.238;2023-04-05T02:44:47;100884.23;;;1.53;57.58
56582;BME280;42463;52.214;21.238;2023-04-05T02:46:51;100882.06;;;1.53;57.47
56582;BME280;42463;52.214;21.238;2023-04-05T02:48:57;100882.15;;;1.54;57.35
56582;BME280;42463;52.214;21.238;2023-04-05T02:51:02;100883.67;;;1.54;57.34
56582;BME280;42463;52.214;21.238;2023-04-05T02:53:07;100882.04;;;1.54;57.41
56582;BME280;42463;52.214;21.238;2023-04-05T02:55:11;100885.10;;;1.53;57.29
56582;BME280;42463;52.214;21.238;2023-04-05T02:57:15;100885.60;;;1.50;57.30
56582;BME280;42463;52.214;21.238;2023-04-05T02:59:27;100886.48;;;1.43;57.28
56582;BME280;42463;52.214;21.238;2023-04-05T03:01:32;100885.91;;;1.37;57.43
56582;BME280;42463;52.214;21.238;2023-04-05T03:03:38;100882.52;;;1.34;57.42
56582;BME280;42463;52.214;21.238;2023-04-05T03:05:43;100878.52;;;1.33;57.58
56582;BME280;42463;52.214;21.238;2023-04-05T03:07:49;100874.95;;;1.34;57.51
56582;BME280;42463;52.214;21.238;2023-04-05T03:09:54;100881.00;;;1.34;57.39
56582;BME280;42463;52.214;21.238;2023-04-05T03:11:58;100883.91;;;1.33;57.33
56582;BME280;42463;52.214;21.238;2023-04-05T03:14:03;100884.81;;;1.33;57.47
56582;BME280;42463;52.214;21.238;2023-04-05T03:16:12;100886.08;;;1.33;57.23
56582;BME280;42463;52.214;21.238;2023-04-05T03:18:17;100880.98;;;1.31;57.36
56582;BME280;42463;52.214;21.238;2023-04-05T03:20:23;100882.06;;;1.31;57.26
56582;BME280;42463;52.214;21.238;2023-04-05T03:22:29;100883.44;;;1.29;57.26
56582;BME280;42463;52.214;21.238;2023-04-05T03:24:33;100881.48;;;1.28;57.28
56582;BME280;42463;52.214;21.238;2023-04-05T03:26:38;100884.90;;;1.28;57.51
56582;BME280;42463;52.214;21.238;2023-04-05T03:28:43;100879.77;;;1.23;57.19
56582;BME280;42463;52.214;21.238;2023-04-05T03:30:47;100880.31;;;1.14;57.11
56582;BME280;42463;52.214;21.238;2023-04-05T03:32:54;100882.25;;;1.08;57.59
56582;BME280;42463;52.214;21.238;2023-04-05T03:35:28;100882.04;;;1.04;57.84
56582;BME280;42463;52.214;21.238;2023-04-05T03:37:33;100885.83;;;1.00;58.07
56582;BME280;42463;52.214;21.238;2023-04-05T03:39:40;100882.85;;;0.97;58.02
56582;BME280;42463;52.214;21.238;2023-04-05T03:41:44;100884.70;;;0.94;58.12
56582;BME280;42463;52.214;21.238;2023-04-05T03:43:48;100881.80;;;0.90;57.83
56582;BME280;42463;52.214;21.238;2023-04-05T03:45:56;100884.41;;;0.87;58.13
56582;BME280;42463;52.214;21.238;2023-04-05T03:48:05;100885.84;;;0.83;58.27
56582;BME280;42463;52.214;21.238;2023-04-05T03:50:09;100888.21;;;0.83;58.29
56582;BME280;42463;52.214;21.238;2023-04-05T03:52:13;100889.24;;;0.83;58.54
56582;BME280;42463;52.214;21.238;2023-04-05T03:54:20;100884.51;;;0.83;58.48
56582;BME280;42463;52.214;21.238;2023-04-05T03:56:26;100878.61;;;0.77;58.32
56582;BME280;42463;52.214;21.238;2023-04-05T03:58:31;100877.96;;;0.79;58.58
56582;BME280;42463;52.214;21.238;2023-04-05T04:00:35;100878.67;;;0.82;58.77
56582;BME280;42463;52.214;21.238;2023-04-05T04:02:46;100878.40;;;0.86;58.74
56582;BME280;42463;52.214;21.238;2023-04-05T04:04:55;100879.09;;;0.91;58.92
56582;BME280;42463;52.214;21.238;2023-04-05T04:07:00;100872.20;;;0.89;58.84
56582;BME280;42463;52.214;21.238;2023-04-05T04:09:05;100882.42;;;0.96;58.81
56582;BME280;42463;52.214;21.238;2023-04-05T04:11:09;100881.60;;;0.99;58.93
56582;BME280;42463;52.214;21.238;2023-04-05T04:13:16;100883.08;;;1.01;58.86
56582;BME280;42463;52.214;21.238;2023-04-05T04:15:22;100890.77;;;1.04;58.74
56582;BME280;42463;52.214;21.238;2023-04-05T04:17:45;100891.19;;;1.07;58.93
56582;BME280;42463;52.214;21.238;2023-04-05T04:20:03;100894.91;;;1.11;58.74
56582;BME280;42463;52.214;21.238;2023-04-05T04:22:31;100891.66;;;1.14;58.92
56582;BME280;42463;52.214;21.238;2023-04-05T04:25:05;100893.85;;;1.17;58.80
56582;BME280;42463;52.214;21.238;2023-04-05T04:27:36;100893.69;;;1.21;59.12
56582;BME280;42463;52.214;21.238;2023-04-05T04:29:54;100895.51;;;1.25;58.92
56582;BME280;42463;52.214;21.238;2023-04-05T04:32:23;100894.89;;;1.27;58.87
56582;BME280;42463;52.214;21.238;2023-04-05T04:35:06;100902.95;;;1.31;58.85
56582;BME280;42463;52.214;21.238;2023-04-05T04:37:34;100906.13;;;1.37;59.10
56582;BME280;42463;52.214;21.238;2023-04-05T04:39:58;100903.40;;;1.41;59.15
56582;BME280;42463;52.214;21.238;2023-04-05T04:42:28;100899.85;;;1.46;58.97
56582;BME280;42463;52.214;21.238;2023-04-05T04:44:51;100899.42;;;1.51;59.14
56582;BME280;42463;52.214;21.238;2023-04-05T04:47:15;100904.87;;;1.54;59.00
56582;BME280;42463;52.214;21.238;2023-04-05T04:49:43;100900.58;;;1.56;58.96
56582;BME280;42463;52.214;21.238;2023-04-05T04:51:47;100897.77;;;1.58;59.23
56582;BME280;42463;52.214;21.238;2023-04-05T04:53:54;100894.48;;;1.62;59.36
56582;BME280;42463;52.214;21.238;2023-04-05T04:55:59;100892.37;;;1.67;59.25
56582;BME280;42463;52.214;21.238;2023-04-05T04:58:03;100893.97;;;1.69;59.15
56582;BME280;42463;52.214;21.238;2023-04-05T05:00:12;100892.42;;;1.68;59.00
56582;BME280;42463;52.214;21.238;2023-04-05T05:02:17;100892.90;;;1.57;59.15
56582;BME280;42463;52.214;21.238;2023-04-05T05:04:26;100892.70;;;1.55;59.52
56582;BME280;42463;52.214;21.238;2023-04-05T05:06:30;100893.23;;;1.58;59.77
56582;BME280;42463;52.214;21.238;2023-04-05T05:08:34;100894.67;;;1.64;59.75
56582;BME280;42463;52.214;21.238;2023-04-05T05:10:39;100881.17;;;1.60;59.90
56582;BME280;42463;52.214;21.238;2023-04-05T05:12:43;100895.87;;;1.76;59.89
56582;BME280;42463;52.214;21.238;2023-04-05T05:14:49;100894.45;;;1.80;59.83
56582;BME280;42463;52.214;21.238;2023-04-05T05:16:53;100897.52;;;1.85;59.80
56582;BME280;42463;52.214;21.238;2023-04-05T05:19:03;100900.20;;;1.91;59.97
56582;BME280;42463;52.214;21.238;2023-04-05T05:21:16;100904.92;;;1.98;59.96
56582;BME280;42463;52.214;21.238;2023-04-05T05:23:27;100904.18;;;2.04;59.86
56582;BME280;42463;52.214;21.238;2023-04-05T05:25:31;100903.27;;;2.09;59.69
56582;BME280;42463;52.214;21.238;2023-04-05T05:27:35;100904.05;;;2.11;59.63
56582;BME280;42463;52.214;21.238;2023-04-05T05:29:39;100911.27;;;2.09;59.55
56582;BME280;42463;52.214;21.238;2023-04-05T05:31:44;100911.41;;;2.11;59.77
56582;BME280;42463;52.214;21.238;2023-04-05T05:33:48;100912.50;;;2.15;59.96
56582;BME280;42463;52.214;21.238;2023-04-05T05:35:52;100908.05;;;2.22;59.93
56582;BME280;42463;52.214;21.238;2023-04-05T05:37:56;100910.04;;;2.29;59.83
56582;BME280;42463;52.214;21.238;2023-04-05T05:40:01;100911.09;;;2.35;59.73
56582;BME280;42463;52.214;21.238;2023-04-05T05:42:06;100913.96;;;2.38;59.61
56582;BME280;42463;52.214;21.238;2023-04-05T05:44:10;100913.60;;;2.38;59.72
56582;BME280;42463;52.214;21.238;2023-04-05T05:46:15;100914.12;;;2.41;59.67
56582;BME280;42463;52.214;21.238;2023-04-05T05:48:19;100915.09;;;2.43;59.68
56582;BME280;42463;52.214;21.238;2023-04-05T05:50:23;100909.70;;;2.43;59.73
56582;BME280;42463;52.214;21.238;2023-04-05T05:52:27;100922.29;;;2.48;59.57
56582;BME280;42463;52.214;21.238;2023-04-05T05:54:31;100920.39;;;2.52;59.73
56582;BME280;42463;52.214;21.238;2023-04-05T05:56:36;100919.37;;;2.58;59.60
56582;BME280;42463;52.214;21.238;2023-04-05T05:58:40;100921.63;;;2.64;59.45
56582;BME280;42463;52.214;21.238;2023-04-05T06:00:44;100927.70;;;2.70;59.56
56582;BME280;42463;52.214;21.238;2023-04-05T06:02:49;100926.02;;;2.75;59.22
56582;BME280;42463;52.214;21.238;2023-04-05T06:04:54;100930.64;;;2.79;59.25
56582;BME280;42463;52.214;21.238;2023-04-05T06:06:59;100930.51;;;2.82;59.10
56582;BME280;42463;52.214;21.238;2023-04-05T06:09:03;100932.31;;;2.85;58.80
56582;BME280;42463;52.214;21.238;2023-04-05T06:11:08;100935.02;;;2.88;58.86
56582;BME280;42463;52.214;21.238;2023-04-05T06:13:19;100932.73;;;2.90;58.92
56582;BME280;42463;52.214;21.238;2023-04-05T06:15:23;100934.20;;;2.93;58.97
56582;BME280;42463;52.214;21.238;2023-04-05T06:17:27;100935.39;;;2.97;58.82
56582;BME280;42463;52.214;21.238;2023-04-05T06:19:31;100936.53;;;3.00;58.80
56582;BME280;42463;52.214;21.238;2023-04-05T06:21:35;100939.36;;;3.03;58.72
56582;BME280;42463;52.214;21.238;2023-04-05T06:23:40;100933.48;;;3.05;58.54
56582;BME280;42463;52.214;21.238;2023-04-05T06:25:44;100934.52;;;3.01;58.82
56582;BME280;42463;52.214;21.238;2023-04-05T06:27:48;100937.08;;;3.02;59.07
56582;BME280;42463;52.214;21.238;2023-04-05T06:29:53;100935.06;;;3.06;59.03
56582;BME280;42463;52.214;21.238;2023-04-05T06:31:57;100935.77;;;3.11;58.80
56582;BME280;42463;52.214;21.238;2023-04-05T06:34:03;100936.42;;;3.11;58.45
56582;BME280;42463;52.214;21.238;2023-04-05T06:36:09;100937.58;;;3.10;58.58
56582;BME280;42463;52.214;21.238;2023-04-05T06:38:13;100944.05;;;3.13;58.74
56582;BME280;42463;52.214;21.238;2023-04-05T06:40:18;100940.94;;;3.12;58.68
56582;BME280;42463;52.214;21.238;2023-04-05T06:42:24;100944.65;;;3.15;59.01
56582;BME280;42463;52.214;21.238;2023-04-05T06:44:30;100942.94;;;3.22;58.96
56582;BME280;42463;52.214;21.238;2023-04-05T06:46:35;100945.54;;;3.31;59.02
56582;BME280;42463;52.214;21.238;2023-04-05T06:48:39;100945.29;;;3.37;58.78
56582;BME280;42463;52.214;21.238;2023-04-05T06:50:44;100942.86;;;3.42;58.41
56582;BME280;42463;52.214;21.238;2023-04-05T06:52:49;100947.33;;;3.49;58.02
56582;BME280;42463;52.214;21.238;2023-04-05T06:54:53;100950.37;;;3.53;57.69
56582;BME280;42463;52.214;21.238;2023-04-05T06:56:58;100950.75;;;3.56;57.61
56582;BME280;42463;52.214;21.238;2023-04-05T06:59:02;100949.16;;;3.53;57.54
56582;BME280;42463;52.214;21.238;2023-04-05T07:01:06;100948.27;;;3.55;57.46
56582;BME280;42463;52.214;21.238;2023-04-05T07:03:10;100949.71;;;3.54;57.02
56582;BME280;42463;52.214;21.238;2023-04-05T07:05:14;100954.39;;;3.56;56.92
56582;BME280;42463;52.214;21.238;2023-04-05T07:07:19;100954.05;;;3.60;56.81
56582;BME280;42463;52.214;21.238;2023-04-05T07:09:24;100958.57;;;3.59;55.58
56582;BME280;42463;52.214;21.238;2023-04-05T07:11:30;100955.31;;;3.58;55.49
56582;BME280;42463;52.214;21.238;2023-04-05T07:13:35;100953.76;;;3.60;55.28
56582;BME280;42463;52.214;21.238;2023-04-05T07:15:39;100952.73;;;3.66;54.88
56582;BME280;42463;52.214;21.238;2023-04-05T07:17:43;100958.27;;;3.69;54.21
56582;BME280;42463;52.214;21.238;2023-04-05T07:19:47;100956.48;;;3.66;53.97
56582;BME280;42463;52.214;21.238;2023-04-05T07:21:51;100940.96;;;3.56;53.58
56582;BME280;42463;52.214;21.238;2023-04-05T07:23:55;100957.48;;;3.61;53.24
56582;BME280;42463;52.214;21.238;2023-04-05T07:26:02;100955.72;;;3.58;53.27
56582;BME280;42463;52.214;21.238;2023-04-05T07:28:07;100957.09;;;3.60;53.16
56582;BME280;42463;52.214;21.238;2023-04-05T07:30:12;100955.20;;;3.60;53.03
56582;BME280;42463;52.214;21.238;2023-04-05T07:32:16;100957.20;;;3.63;53.11
56582;BME280;42463;52.214;21.238;2023-04-05T07:34:20;100956.09;;;3.63;52.74
56582;BME280;42463;52.214;21.238;2023-04-05T07:36:25;100957.34;;;3.59;52.26
56582;BME280;42463;52.214;21.238;2023-04-05T07:38:29;100956.60;;;3.54;52.43
56582;BME280;42463;52.214;21.238;2023-04-05T07:40:33;100958.43;;;3.56;52.90
56582;BME280;42463;52.214;21.238;2023-04-05T07:42:37;100955.95;;;3.62;53.27
56582;BME280;42463;52.214;21.238;2023-04-05T07:44:42;100958.02;;;3.69;53.40
56582;BME280;42463;52.214;21.238;2023-04-05T07:46:46;100957.67;;;3.77;53.40
56582;BME280;42463;52.214;21.238;2023-04-05T07:48:50;100958.80;;;3.88;53.56
56582;BME280;42463;52.214;21.238;2023-04-05T07:50:54;100956.41;;;3.95;53.27
56582;BME280;42463;52.214;21.238;2023-04-05T07:52:58;100953.57;;;4.03;53.07
56582;BME280;42463;52.214;21.238;2023-04-05T07:55:03;100956.26;;;4.11;52.99
56582;BME280;42463;52.214;21.238;2023-04-05T07:57:08;100955.98;;;4.18;52.53
56582;BME280;42463;52.214;21.238;2023-04-05T07:59:13;100956.90;;;4.18;52.11
56582;BME280;42463;52.214;21.238;2023-04-05T08:01:17;100956.75;;;4.23;52.18
56582;BME280;42463;52.214;21.238;2023-04-05T08:03:21;100953.90;;;4.31;52.03
56582;BME280;42463;52.214;21.238;2023-04-05T08:05:25;100954.66;;;4.34;51.49
56582;BME280;42463;52.214;21.238;2023-04-05T08:07:30;100958.24;;;4.32;51.48
56582;BME280;42463;52.214;21.238;2023-04-05T08:09:35;100956.90;;;4.29;51.66
56582;BME280;42463;52.214;21.238;2023-04-05T08:11:40;100956.23;;;4.28;51.60
56582;BME280;42463;52.214;21.238;2023-04-05T08:13:45;100958.06;;;4.28;51.70
56582;BME280;42463;52.214;21.238;2023-04-05T08:15:49;100960.98;;;4.35;51.81
56582;BME280;42463;52.214;21.238;2023-04-05T08:17:53;100958.83;;;4.43;52.11
56582;BME280;42463;52.214;21.238;2023-04-05T08:19:57;100958.47;;;4.49;51.91
56582;BME280;42463;52.214;21.238;2023-04-05T08:22:01;100958.33;;;4.53;51.51
56582;BME280;42463;52.214;21.238;2023-04-05T08:24:06;100957.89;;;4.59;51.58
56582;BME280;42463;52.214;21.238;2023-04-05T08:26:10;100954.31;;;4.67;51.40
56582;BME280;42463;52.214;21.238;2023-04-05T08:28:15;100953.51;;;4.76;50.55
56582;BME280;42463;52.214;21.238;2023-04-05T08:30:19;100952.94;;;4.80;49.82
56582;BME280;42463;52.214;21.238;2023-04-05T08:32:25;100953.85;;;4.80;49.90
56582;BME280;42463;52.214;21.238;2023-04-05T08:34:29;100951.00;;;4.84;50.26
56582;BME280;42463;52.214;21.238;2023-04-05T08:36:34;100952.66;;;4.88;49.84
56582;BME280;42463;52.214;21.238;2023-04-05T08:38:39;100944.50;;;4.81;49.27
56582;BME280;42463;52.214;21.238;2023-04-05T08:40:43;100954.38;;;4.79;49.41
56582;BME280;42463;52.214;21.238;2023-04-05T08:42:50;100955.86;;;4.76;49.19
56582;BME280;42463;52.214;21.238;2023-04-05T08:44:55;100959.20;;;4.74;49.42
56582;BME280;42463;52.214;21.238;2023-04-05T08:47:00;100954.83;;;4.75;49.19
56582;BME280;42463;52.214;21.238;2023-04-05T08:49:05;100952.54;;;4.71;48.70
56582;BME280;42463;52.214;21.238;2023-04-05T08:51:10;100956.55;;;4.67;48.61
56582;BME280;42463;52.214;21.238;2023-04-05T08:53:14;100953.10;;;4.62;48.64
56582;BME280;42463;52.214;21.238;2023-04-05T08:55:18;100956.02;;;4.57;48.40
56582;BME280;42463;52.214;21.238;2023-04-05T08:57:23;100957.70;;;4.53;48.55
56582;BME280;42463;52.214;21.238;2023-04-05T08:59:29;100956.57;;;4.50;48.66
56582;BME280;42463;52.214;21.238;2023-04-05T09:01:35;100962.34;;;4.53;48.45
56582;BME280;42463;52.214;21.238;2023-04-05T09:03:40;100961.47;;;4.54;48.11
56582;BME280;42463;52.214;21.238;2023-04-05T09:05:47;100958.08;;;4.54;47.81
56582;BME280;42463;52.214;21.238;2023-04-05T09:07:51;100957.48;;;4.59;48.19
56582;BME280;42463;52.214;21.238;2023-04-05T09:09:56;100957.79;;;4.68;48.17
56582;BME280;42463;52.214;21.238;2023-04-05T09:12:04;100958.73;;;4.78;47.80
56582;BME280;42463;52.214;21.238;2023-04-05T09:14:09;100957.91;;;4.86;47.64
56582;BME280;42463;52.214;21.238;2023-04-05T09:16:14;100955.33;;;4.94;46.95
56582;BME280;42463;52.214;21.238;2023-04-05T09:18:19;100954.80;;;5.00;46.58
56582;BME280;42463;52.214;21.238;2023-04-05T09:20:23;100957.08;;;5.02;46.19
56582;BME280;42463;52.214;21.238;2023-04-05T09:22:27;100953.73;;;5.00;46.15
56582;BME280;42463;52.214;21.238;2023-04-05T09:24:32;100953.35;;;4.99;46.35
56582;BME280;42463;52.214;21.238;2023-04-05T09:26:36;100953.85;;;4.99;47.29
56582;BME280;42463;52.214;21.238;2023-04-05T09:28:40;100957.28;;;5.03;47.96
56582;BME280;42463;52.214;21.238;2023-04-05T09:30:46;100955.13;;;4.99;48.34
56582;BME280;42463;52.214;21.238;2023-04-05T09:32:51;100952.13;;;4.88;48.85
56582;BME280;42463;52.214;21.238;2023-04-05T09:34:57;100960.48;;;4.94;49.25
56582;BME280;42463;52.214;21.238;2023-04-05T09:37:12;100959.47;;;4.97;49.59
56582;BME280;42463;52.214;21.238;2023-04-05T09:39:17;100954.30;;;4.98;49.29
56582;BME280;42463;52.214;21.238;2023-04-05T09:41:30;100956.88;;;5.01;48.97
56582;BME280;42463;52.214;21.238;2023-04-05T09:43:37;100958.84;;;4.97;49.02
56582;BME280;42463;52.214;21.238;2023-04-05T09:45:42;100958.41;;;4.89;49.24
56582;BME280;42463;52.214;21.238;2023-04-05T09:47:54;100958.66;;;4.87;49.56
56582;BME280;42463;52.214;21.238;2023-04-05T09:49:59;100958.79;;;4.89;49.51
56582;BME280;42463;52.214;21.238;2023-04-05T09:52:04;100960.44;;;4.86;49.10
56582;BME280;42463;52.214;21.238;2023-04-05T09:54:19;100958.20;;;4.85;49.36
56582;BME280;42463;52.214;21.238;2023-04-05T09:56:24;100963.80;;;4.90;49.63
56582;BME280;42463;52.214;21.238;2023-04-05T09:58:29;100962.81;;;4.96;49.69
56582;BME280;42463;52.214;21.238;2023-04-05T10:00:35;100961.17;;;5.03;49.52
56582;BME280;42463;52.214;21.238;2023-04-05T10:02:40;100958.77;;;5.04;49.49
56582;BME280;42463;52.214;21.238;2023-04-05T10:04:44;100961.30;;;5.01;49.53
56582;BME280;42463;52.214;21.238;2023-04-05T10:06:50;100961.50;;;4.98;49.55
56582;BME280;42463;52.214;21.238;2023-04-05T10:08:54;100956.12;;;4.97;49.52
56582;BME280;42463;52.214;21.238;2023-04-05T10:10:58;100959.55;;;4.95;49.29
56582;BME280;42463;52.214;21.238;2023-04-05T10:13:05;100960.77;;;4.90;49.19
56582;BME280;42463;52.214;21.238;2023-04-05T10:15:11;100957.09;;;4.90;49.32
56582;BME280;42463;52.214;21.238;2023-04-05T10:17:19;100957.75;;;4.89;49.24
56582;BME280;42463;52.214;21.238;2023-04-05T10:19:28;100954.36;;;4.86;49.29
56582;BME280;42463;52.214;21.238;2023-04-05T10:21:34;100956.95;;;4.85;49.51
56582;BME280;42463;52.214;21.238;2023-04-05T10:23:41;100955.65;;;4.89;49.39
56582;BME280;42463;52.214;21.238;2023-04-05T10:25:48;100959.78;;;4.90;49.45
56582;BME280;42463;52.214;21.238;2023-04-05T10:27:59;100957.09;;;4.84;49.51
56582;BME280;42463;52.214;21.238;2023-04-05T10:30:07;100955.97;;;4.86;49.31
56582;BME280;42463;52.214;21.238;2023-04-05T10:32:14;100958.37;;;4.85;48.95
56582;BME280;42463;52.214;21.238;2023-04-05T10:34:29;100952.37;;;4.83;48.76
56582;BME280;42463;52.214;21.238;2023-04-05T10:36:35;100953.74;;;4.88;48.40
56582;BME280;42463;52.214;21.238;2023-04-05T10:38:45;100950.52;;;4.92;48.41
56582;BME280;42463;52.214;21.238;2023-04-05T10:40:54;100949.50;;;4.99;48.66
56582;BME280;42463;52.214;21.238;2023-04-05T10:42:58;100946.29;;;5.06;48.23
56582;BME280;42463;52.214;21.238;2023-04-05T10:45:04;100944.52;;;5.14;47.95
56582;BME280;42463;52.214;21.238;2023-04-05T10:47:13;100942.23;;;5.18;47.35
56582;BME280;42463;52.214;21.238;2023-04-05T10:49:28;100950.46;;;5.22;47.34
56582;BME280;42463;52.214;21.238;2023-04-05T10:51:35;100944.18;;;5.25;47.08
56582;BME280;42463;52.214;21.238;2023-04-05T10:53:40;100939.75;;;5.24;47.12
56582;BME280;42463;52.214;21.238;2023-04-05T10:55:45;100938.80;;;5.30;46.64
56582;BME280;42463;52.214;21.238;2023-04-05T10:57:51;100937.05;;;5.38;46.20
56582;BME280;42463;52.214;21.238;2023-04-05T10:59:57;100932.74;;;5.48;45.60
56582;BME280;42463;52.214;21.238;2023-04-05T11:02:02;100935.68;;;5.55;45.67
56582;BME280;42463;52.214;21.238;2023-04-05T11:04:11;100939.11;;;5.60;45.30
56582;BME280;42463;52.214;21.238;2023-04-05T11:06:19;100939.19;;;5.61;45.06